Time;durP1;ratioP1;P1;durP2;ratioP2;P2;SDS_P1;SDS_P2;PMS_P1;PMS_P2;Temp;Humidity;BMP_temperature;BMP_pressure;BME280_temperature;BME280_humidity;BME280_pressure;Samples;Min_cycle;Max_cycle;Signal;HPM_P1;HPM_P2
2024/01/24 00:02:23;;;;;;;5.65;4.10;;;11.90;99.90;;;;;;5069284;28;20411;-65
2024/01/24 00:04:48;;;;;;;5.03;3.70;;;11.90;99.90;;;;;;5069195;28;20411;-66
2024/01/24 00:07:14;;;;;;;5.32;3.83;;;11.90;99.90;;;;;;5069480;28;20404;-66
2024/01/24 00:09:40;;;;;;;6.25;4.20;;;12.00;99.90;;;;;;5050658;28;20424;-65
2024/01/24 00:12:06;;;;;;;5.60;4.23;;;12.00;99.90;;;;;;5068344;28;20411;-65
2024/01/24 00:14:32;;;;;;;7.20;4.50;;;12.00;99.90;;;;;;5073410;28;20403;-65
2024/01/24 00:16:58;;;;;;;5.28;4.25;;;12.00;99.90;;;;;;5070824;28;20387;-65
2024/01/24 00:19:23;;;;;;;5.10;4.23;;;12.00;99.90;;;;;;5071705;28;20400;-65
2024/01/24 00:21:49;;;;;;;5.95;3.90;;;11.90;99.90;;;;;;5068091;28;20422;-65
2024/01/24 00:24:15;;;;;;;6.30;4.00;;;12.00;99.90;;;;;;5068821;28;20419;-65
2024/01/24 00:26:41;;;;;;;5.55;3.72;;;12.00;99.90;;;;;;5051934;28;20916;-66
2024/01/24 00:29:07;;;;;;;7.32;3.75;;;12.00;99.90;;;;;;5051095;28;20435;-65
2024/01/24 00:31:33;;;;;;;5.95;3.10;;;12.00;99.90;;;;;;5067843;28;20407;-65
2024/01/24 00:33:59;;;;;;;3.97;3.10;;;12.10;99.90;;;;;;5068103;28;20419;-65
2024/01/24 00:36:25;;;;;;;5.17;3.17;;;12.10;99.90;;;;;;5068315;28;20412;-66
2024/01/24 00:38:51;;;;;;;6.17;3.00;;;12.20;99.90;;;;;;5071136;28;20396;-65
2024/01/24 00:41:17;;;;;;;3.45;2.85;;;12.20;99.90;;;;;;5068809;28;20415;-66
2024/01/24 00:43:43;;;;;;;5.05;3.10;;;12.20;99.90;;;;;;5054762;28;20407;-66
2024/01/24 00:46:09;;;;;;;5.13;3.10;;;12.20;99.90;;;;;;5068502;28;20392;-66
2024/01/24 00:48:35;;;;;;;4.10;3.10;;;12.20;99.90;;;;;;5068996;28;20398;-66
2024/01/24 00:51:00;;;;;;;3.80;2.97;;;12.20;99.90;;;;;;5068566;28;20482;-66
2024/01/24 00:53:29;;;;;;;5.40;2.87;;;12.20;99.90;;;;;;5069371;28;20391;-66
2024/01/24 00:55:56;;;;;;;4.38;2.58;;;12.10;99.90;;;;;;5049799;28;20392;-65
2024/01/24 00:58:22;;;;;;;4.20;2.80;;;12.20;99.90;;;;;;5052460;28;20480;-65
2024/01/24 01:00:48;;;;;;;4.35;2.70;;;12.20;99.90;;;;;;5048272;28;20497;-65
2024/01/24 01:03:14;;;;;;;4.27;2.60;;;12.20;99.90;;;;;;5069767;28;20872;-65
2024/01/24 01:05:39;;;;;;;5.13;2.80;;;12.20;99.90;;;;;;5069350;28;20923;-66
2024/01/24 01:08:06;;;;;;;3.63;2.50;;;12.20;99.90;;;;;;5051612;28;20412;-65
2024/01/24 01:10:31;;;;;;;3.53;2.40;;;12.30;99.90;;;;;;5067462;28;20485;-65
2024/01/24 01:12:57;;;;;;;3.53;2.47;;;12.30;99.90;;;;;;5068306;28;20419;-66
2024/01/24 01:15:24;;;;;;;3.17;2.47;;;12.30;99.90;;;;;;5067704;28;21305;-65
2024/01/24 01:17:50;;;;;;;4.53;2.60;;;12.30;99.90;;;;;;5069078;28;20422;-65
2024/01/24 01:20:19;;;;;;;3.67;2.37;;;12.30;99.90;;;;;;5068255;28;20411;-65
2024/01/24 01:22:45;;;;;;;4.33;2.40;;;12.30;99.90;;;;;;5066967;28;20969;-65
2024/01/24 01:25:11;;;;;;;3.30;2.13;;;12.20;99.90;;;;;;5067869;28;20908;-65
2024/01/24 01:27:37;;;;;;;3.33;2.40;;;12.20;99.90;;;;;;5062515;28;20466;-66
2024/01/24 01:30:04;;;;;;;4.25;2.22;;;12.10;99.90;;;;;;5068113;28;20424;-66
2024/01/24 01:32:30;;;;;;;2.40;2.20;;;12.10;99.90;;;;;;5068052;28;20447;-66
2024/01/24 01:34:55;;;;;;;2.90;2.20;;;12.00;99.90;;;;;;5067568;28;20423;-66
2024/01/24 01:37:23;;;;;;;3.65;2.20;;;12.00;99.90;;;;;;5067346;28;20408;-65
2024/01/24 01:39:50;;;;;;;2.70;1.83;;;12.00;99.90;;;;;;5068872;28;20408;-65
2024/01/24 01:42:15;;;;;;;2.00;1.80;;;12.10;99.90;;;;;;5067575;28;20486;-65
2024/01/24 01:44:46;;;;;;;3.22;1.80;;;12.10;99.90;;;;;;5066893;28;20427;-65
2024/01/24 01:47:13;;;;;;;4.53;1.83;;;12.10;99.90;;;;;;5050463;28;20403;-65
2024/01/24 01:49:40;;;;;;;3.15;1.90;;;12.10;99.90;;;;;;5065485;28;20419;-66
2024/01/24 01:52:06;;;;;;;3.23;1.87;;;12.10;99.90;;;;;;5064792;28;20893;-65
2024/01/24 01:54:33;;;;;;;2.17;1.63;;;12.20;99.90;;;;;;5069270;28;20396;-66
2024/01/24 01:56:59;;;;;;;1.85;1.48;;;12.10;99.90;;;;;;5068227;28;20408;-66
2024/01/24 01:59:26;;;;;;;1.63;1.45;;;12.20;99.90;;;;;;5067131;28;20490;-65
2024/01/24 02:01:54;;;;;;;2.90;1.30;;;12.20;99.90;;;;;;5063229;28;20425;-66
2024/01/24 02:04:21;;;;;;;2.00;1.60;;;12.20;99.90;;;;;;5050715;28;20492;-65
2024/01/24 02:06:47;;;;;;;3.00;1.60;;;12.30;99.90;;;;;;5070588;28;20396;-66
2024/01/24 02:09:13;;;;;;;3.33;1.57;;;12.30;99.90;;;;;;5066821;28;20419;-66
2024/01/24 02:11:42;;;;;;;2.67;1.70;;;12.20;99.90;;;;;;5069636;28;20498;-66
2024/01/24 02:14:08;;;;;;;4.20;1.80;;;12.10;99.90;;;;;;5063710;28;21020;-66
2024/01/24 02:16:34;;;;;;;3.08;1.52;;;12.10;99.90;;;;;;5067873;28;20479;-67
2024/01/24 02:18:59;;;;;;;2.03;1.70;;;12.10;99.90;;;;;;5048039;28;20425;-66
2024/01/24 02:21:25;;;;;;;2.70;2.00;;;12.10;99.90;;;;;;5066874;28;20422;-66
2024/01/24 02:23:51;;;;;;;2.53;1.70;;;12.10;99.90;;;;;;5066869;28;20482;-66
2024/01/24 02:26:17;;;;;;;2.80;2.00;;;12.00;99.90;;;;;;5066789;28;20475;-66
2024/01/24 02:28:43;;;;;;;2.42;1.80;;;12.00;99.90;;;;;;5062550;28;20397;-66
2024/01/24 02:31:08;;;;;;;3.38;1.80;;;12.00;99.90;;;;;;5084094;27;20492;-66
2024/01/24 02:33:34;;;;;;;3.03;1.80;;;12.10;99.90;;;;;;5066281;28;20525;-65
2024/01/24 02:36:00;;;;;;;2.63;1.83;;;12.10;99.90;;;;;;5067609;28;20415;-66
2024/01/24 02:38:25;;;;;;;4.03;1.60;;;12.00;99.90;;;;;;5067612;28;20395;-66
2024/01/24 02:40:51;;;;;;;3.17;1.73;;;12.10;99.90;;;;;;5066090;28;20426;-65
2024/01/24 02:43:17;;;;;;;5.07;1.90;;;12.20;99.90;;;;;;5067560;28;20895;-65
2024/01/24 02:45:42;;;;;;;3.10;1.90;;;12.10;99.90;;;;;;5067728;28;20769;-66
2024/01/24 02:48:08;;;;;;;4.87;2.20;;;12.00;99.90;;;;;;5068879;28;20994;-66
2024/01/24 02:50:34;;;;;;;4.05;2.28;;;11.90;99.90;;;;;;5067881;28;20442;-66
2024/01/24 02:52:59;;;;;;;5.13;2.20;;;11.80;99.90;;;;;;5063273;28;20425;-66
2024/01/24 02:55:25;;;;;;;6.30;2.30;;;11.80;99.90;;;;;;5051348;28;20795;-66
2024/01/24 02:57:51;;;;;;;5.30;2.30;;;11.80;99.90;;;;;;5068338;28;20880;-66
2024/01/24 03:00:17;;;;;;;4.45;2.13;;;11.70;99.90;;;;;;5067521;28;20538;-66
2024/01/24 03:02:42;;;;;;;5.53;2.00;;;11.70;99.90;;;;;;5071275;28;20403;-66
2024/01/24 03:05:11;;;;;;;3.75;1.60;;;11.70;99.90;;;;;;5071874;28;20444;-66
2024/01/24 03:07:37;;;;;;;4.53;1.83;;;11.80;99.90;;;;;;5071691;28;20404;-66
2024/01/24 03:10:04;;;;;;;4.72;2.13;;;11.70;99.90;;;;;;5071125;28;20427;-66
2024/01/24 03:12:30;;;;;;;6.93;2.40;;;11.70;99.90;;;;;;5072158;28;20498;-66
2024/01/24 03:14:56;;;;;;;8.90;2.30;;;11.60;99.90;;;;;;5072780;28;20405;-66
2024/01/24 03:17:21;;;;;;;8.13;2.67;;;11.60;99.90;;;;;;5054151;28;20897;-65
2024/01/24 03:19:47;;;;;;;8.68;2.95;;;11.50;99.90;;;;;;5069223;28;20971;-66
2024/01/24 03:22:13;;;;;;;8.52;3.13;;;11.50;99.90;;;;;;5069876;28;20502;-66
2024/01/24 03:24:39;;;;;;;12.07;3.30;;;11.50;99.90;;;;;;5072534;28;20920;-65
2024/01/24 03:27:04;;;;;;;12.48;3.35;;;11.50;99.90;;;;;;5070823;28;20391;-66
2024/01/24 03:29:30;;;;;;;11.87;3.63;;;11.40;99.90;;;;;;5095612;28;20762;-65
2024/01/24 03:31:56;;;;;;;12.80;3.90;;;11.40;99.90;;;;;;5070753;28;20848;-65
2024/01/24 03:34:23;;;;;;;11.75;3.78;;;11.30;99.90;;;;;;5070461;28;20431;-66
2024/01/24 03:36:49;;;;;;;13.18;3.97;;;11.30;99.90;;;;;;5068936;28;20407;-66
2024/01/24 03:39:14;;;;;;;13.70;4.00;;;11.20;99.90;;;;;;5070344;28;20781;-65
2024/01/24 03:41:40;;;;;;;17.02;4.13;;;11.20;99.90;;;;;;5070479;28;20433;-66
2024/01/24 03:44:06;;;;;;;13.90;4.00;;;11.10;99.90;;;;;;5069120;28;20427;-65
2024/01/24 03:46:32;;;;;;;10.38;3.45;;;11.10;99.90;;;;;;5069321;28;20765;-65
2024/01/24 03:48:57;;;;;;;10.33;3.37;;;11.10;99.90;;;;;;5068809;28;20411;-65
2024/01/24 03:51:24;;;;;;;14.25;4.35;;;11.10;99.90;;;;;;5073633;28;20464;-65
2024/01/24 03:53:50;;;;;;;;;;;11.00;99.90;;;;;;5072427;28;20036;-65
2024/01/24 03:56:15;;;;;;;;;;;11.00;99.90;;;;;;5072295;28;19916;-66
2024/01/24 03:58:41;;;;;;;;;;;11.00;99.90;;;;;;5070081;28;19960;-66
2024/01/24 04:01:07;;;;;;;11.80;3.88;;;10.90;99.90;;;;;;5071403;28;19916;-66
2024/01/24 04:03:32;;;;;;;;;;;10.90;99.90;;;;;;5070349;28;20485;-66
2024/01/24 04:05:58;;;;;;;;;;;11.00;99.90;;;;;;5070656;28;19920;-66
2024/01/24 04:08:23;;;;;;;;;;;11.00;99.90;;;;;;5071121;28;20487;-65
2024/01/24 04:10:49;;;;;;;;;;;10.90;99.90;;;;;;5072393;28;19921;-66
2024/01/24 04:13:15;;;;;;;;;;;10.90;99.90;;;;;;5070157;28;19916;-66
2024/01/24 04:15:41;;;;;;;;;;;11.00;99.90;;;;;;5070698;28;20396;-66
2024/01/24 04:18:06;;;;;;;;;;;10.90;99.90;;;;;;5070208;28;20324;-66
2024/01/24 04:20:32;;;;;;;;;;;11.00;99.90;;;;;;5070149;28;19916;-66
2024/01/24 04:22:58;;;;;;;;;;;10.90;99.90;;;;;;5071748;28;19935;-66
2024/01/24 04:25:23;;;;;;;;;;;10.90;99.90;;;;;;5069147;28;19941;-65
2024/01/24 04:27:49;;;;;;;;;;;10.90;99.90;;;;;;5070212;28;19916;-65
2024/01/24 04:30:15;;;;;;;;;;;10.90;99.90;;;;;;5053222;28;19924;-66
2024/01/24 04:32:41;;;;;;;;;;;10.90;99.90;;;;;;5070391;28;19924;-65
2024/01/24 04:35:06;;;;;;;;;;;10.90;99.90;;;;;;5071112;28;19916;-66
2024/01/24 04:37:32;;;;;;;;;;;11.00;99.90;;;;;;5070935;28;19916;-66
2024/01/24 04:39:58;;;;;;;;;;;11.00;99.90;;;;;;5071307;28;20286;-66
2024/01/24 04:42:23;;;;;;;;;;;10.90;99.90;;;;;;5072774;28;19920;-66
2024/01/24 04:44:50;;;;;;;;;;;11.00;99.90;;;;;;5070242;28;20401;-66
2024/01/24 04:47:15;;;;;;;;;;;10.90;99.90;;;;;;5052742;28;19922;-66
2024/01/24 04:49:41;;;;;;;;;;;11.00;99.90;;;;;;5053166;28;19920;-66
2024/01/24 04:52:07;;;;;;;;;;;11.00;99.90;;;;;;5069882;28;20419;-66
2024/01/24 04:54:36;;;;;;;;;;;11.00;99.90;;;;;;5071412;28;20013;-66
2024/01/24 04:57:02;;;;;;;;;;;10.90;99.90;;;;;;5069949;28;20011;-67
2024/01/24 04:59:28;;;;;;;;;;;11.00;99.90;;;;;;5069451;28;20007;-66
2024/01/24 05:01:54;;;;;;;;;;;11.00;99.90;;;;;;5071147;28;19926;-66
2024/01/24 05:04:20;;;;;;;;;;;10.90;99.90;;;;;;5070391;28;19916;-66
2024/01/24 05:06:45;;;;;;;;;;;10.90;99.90;;;;;;5070803;28;19999;-67
2024/01/24 05:09:11;;;;;;;;;;;10.90;99.90;;;;;;5071762;28;19925;-67
2024/01/24 05:11:39;;;;;;;;;;;10.90;99.90;;;;;;5052550;28;20016;-67
2024/01/24 05:14:05;;;;;;;;;;;10.90;99.90;;;;;;5073837;28;19916;-66
2024/01/24 05:16:30;;;;;;;;;;;10.90;99.90;;;;;;5070248;28;20281;-67
2024/01/24 05:18:56;;;;;;;;;;;10.90;99.90;;;;;;5070121;28;19977;-66
2024/01/24 05:21:21;;;;;;;;;;;10.80;99.90;;;;;;5051608;28;19923;-66
2024/01/24 05:23:47;;;;;;;;;;;10.80;99.90;;;;;;5051932;28;20460;-66
2024/01/24 05:26:13;;;;;;;;;;;10.70;99.90;;;;;;5069282;28;21008;-66
2024/01/24 05:28:40;;;;;;;;;;;10.70;99.90;;;;;;5068118;28;19917;-66
2024/01/24 05:31:06;;;;;;;;;;;10.70;99.90;;;;;;5068249;28;19920;-66
2024/01/24 05:33:31;;;;;;;;;;;10.70;99.90;;;;;;5070612;28;19974;-66
2024/01/24 05:35:57;;;;;;;;;;;10.60;99.90;;;;;;5068060;28;20011;-66
2024/01/24 05:38:23;;;;;;;;;;;10.50;99.90;;;;;;5071161;28;19943;-66
2024/01/24 05:40:48;;;;;;;;;;;10.60;99.90;;;;;;5050243;28;19927;-66
2024/01/24 05:43:14;;;;;;;;;;;10.50;99.90;;;;;;5068608;28;19952;-66
2024/01/24 05:45:39;;;;;;;;;;;10.60;99.90;;;;;;5068036;28;19916;-65
2024/01/24 05:48:05;;;;;;;;;;;10.50;99.90;;;;;;5068961;28;20381;-66
2024/01/24 05:50:31;;;;;;;;;;;10.40;99.90;;;;;;5068970;28;19928;-66
2024/01/24 05:52:58;;;;;;;;;;;10.30;99.90;;;;;;5069579;28;19920;-67
2024/01/24 05:55:23;;;;;;;;;;;10.30;99.90;;;;;;5069750;28;19923;-67
2024/01/24 05:57:49;;;;;;;;;;;10.30;99.90;;;;;;5067977;28;19924;-66
2024/01/24 06:00:15;;;;;;;;;;;10.20;99.90;;;;;;5050007;28;19917;-66
2024/01/24 06:02:41;;;;;;;;;;;10.10;99.90;;;;;;5067938;28;19938;-66
2024/01/24 06:05:07;;;;;;;;;;;10.10;99.90;;;;;;5069423;28;19920;-66
2024/01/24 06:07:33;;;;;;;;;;;10.20;99.90;;;;;;5069642;28;19924;-67
2024/01/24 06:10:00;;;;;;;;;;;10.20;99.90;;;;;;5066041;28;19927;-66
2024/01/24 06:12:25;;;;;;;;;;;10.30;99.90;;;;;;5066438;28;19962;-66
2024/01/24 06:14:52;;;;;;;;;;;10.20;99.90;;;;;;5065905;28;20386;-66
2024/01/24 06:17:17;;;;;;;;;;;10.20;99.90;;;;;;5066016;28;19935;-67
2024/01/24 06:19:43;;;;;;;;;;;10.10;99.90;;;;;;5051533;28;20274;-66
2024/01/24 06:22:09;;;;;;;;;;;10.00;99.90;;;;;;5069531;28;19920;-67
2024/01/24 06:24:35;;;;;;;;;;;10.10;99.90;;;;;;5068967;28;19920;-66
2024/01/24 06:27:01;;;;;;;;;;;10.00;99.90;;;;;;5068950;28;19922;-66
2024/01/24 06:29:27;;;;;;;;;;;10.00;99.90;;;;;;5068114;28;19920;-67
2024/01/24 06:31:53;;;;;;;;;;;10.10;99.90;;;;;;5069276;28;19923;-66
2024/01/24 06:34:18;;;;;;;;;;;10.10;99.90;;;;;;5067550;28;19920;-66
2024/01/24 06:36:44;;;;;;;;;;;10.10;99.90;;;;;;5068730;28;19924;-66
2024/01/24 06:39:09;;;;;;;;;;;10.10;99.90;;;;;;5075227;28;20411;-66
2024/01/24 06:41:35;;;;;;;;;;;10.10;99.90;;;;;;5068603;28;19993;-66
2024/01/24 06:44:03;;;;;;;;;;;10.10;99.90;;;;;;5068458;28;19982;-66
2024/01/24 06:46:28;;;;;;;;;;;10.10;99.90;;;;;;5049101;28;20369;-66
2024/01/24 06:48:54;;;;;;;;;;;10.10;99.90;;;;;;5069349;28;20077;-66
2024/01/24 06:51:20;;;;;;;;;;;10.10;99.90;;;;;;5063051;28;19916;-67
2024/01/24 06:53:45;;;;;;;;;;;10.10;99.90;;;;;;5068729;28;19920;-66
2024/01/24 06:56:11;;;;;;;;;;;10.00;99.90;;;;;;5050957;28;19923;-66
2024/01/24 06:58:37;;;;;;;;;;;10.10;99.90;;;;;;5068669;28;19916;-66
2024/01/24 07:01:03;;;;;;;;;;;10.10;99.90;;;;;;5065849;28;19920;-66
2024/01/24 07:03:29;;;;;;;;;;;10.10;99.90;;;;;;5069650;28;19930;-66
2024/01/24 07:05:54;;;;;;;;;;;10.00;99.90;;;;;;5069245;28;20373;-66
2024/01/24 07:08:20;;;;;;;;;;;10.00;99.90;;;;;;5069909;28;20613;-66
2024/01/24 07:10:46;;;;;;;;;;;10.00;99.90;;;;;;5073278;28;19936;-65
2024/01/24 07:13:11;;;;;;;;;;;10.00;99.90;;;;;;5071983;28;20337;-65
2024/01/24 07:15:37;;;;;;;;;;;10.00;99.90;;;;;;5055285;28;19924;-65
2024/01/24 07:18:02;;;;;;;;;;;10.10;99.90;;;;;;5075515;28;19939;-65
2024/01/24 07:20:29;;;;;;;;;;;10.10;99.90;;;;;;5075562;28;19946;-66
2024/01/24 07:22:55;;;;;;;;;;;10.10;99.90;;;;;;5078092;28;19923;-66
2024/01/24 07:25:21;;;;;;;;;;;10.00;99.90;;;;;;5075501;28;19916;-66
2024/01/24 07:27:47;;;;;;;;;;;10.10;99.90;;;;;;5051472;28;20295;-66
2024/01/24 07:30:13;;;;;;;;;;;10.10;99.90;;;;;;5051617;28;19920;-67
2024/01/24 07:32:40;;;;;;;;;;;10.10;99.90;;;;;;5068226;28;19935;-65
2024/01/24 07:35:07;;;;;;;;;;;10.10;99.90;;;;;;5070079;28;19920;-67
2024/01/24 07:37:32;;;;;;;;;;;10.10;99.90;;;;;;5069693;28;19920;-66
2024/01/24 07:39:58;;;;;;;;;;;10.10;99.90;;;;;;5035057;28;19986;-67
2024/01/24 07:42:23;;;;;;;;;;;10.10;99.90;;;;;;5057247;28;20098;-66
2024/01/24 07:44:50;;;;;;;;;;;10.10;99.90;;;;;;5069848;28;20377;-66
2024/01/24 07:47:18;;;;;;;;;;;10.10;99.90;;;;;;5069434;28;19916;-66
2024/01/24 07:49:44;;;;;;;;;;;10.10;99.90;;;;;;5071893;28;19928;-66
2024/01/24 07:52:10;;;;;;;;;;;10.10;99.90;;;;;;5071469;28;19920;-66
2024/01/24 07:54:35;;;;;;;;;;;10.10;99.90;;;;;;5071801;28;20392;-66
2024/01/24 07:57:03;;;;;;;;;;;10.10;99.90;;;;;;5069723;28;19916;-66
2024/01/24 07:59:31;;;;;;;;;;;10.10;99.90;;;;;;5069132;28;19920;-66
2024/01/24 08:01:57;;;;;;;;;;;10.20;99.90;;;;;;5051511;28;19978;-66
2024/01/24 08:04:23;;;;;;;;;;;10.10;99.90;;;;;;5071825;28;20361;-66
2024/01/24 08:06:48;;;;;;;;;;;10.10;99.90;;;;;;5072414;28;19916;-66
2024/01/24 08:09:14;;;;;;;;;;;10.10;99.90;;;;;;5072046;28;20373;-66
2024/01/24 08:11:40;;;;;;;;;;;10.10;99.90;;;;;;5073692;28;19917;-66
2024/01/24 08:14:06;;;;;;;;;;;10.20;99.90;;;;;;5071799;28;19923;-66
2024/01/24 08:16:31;;;;;;;;;;;10.10;99.90;;;;;;5073539;28;19916;-66
2024/01/24 08:18:58;;;;;;;;;;;10.10;99.90;;;;;;5073408;28;19981;-66
2024/01/24 08:21:24;;;;;;;;;;;10.10;99.90;;;;;;5055205;28;20079;-66
2024/01/24 08:23:49;;;;;;;;;;;10.10;99.90;;;;;;5073122;28;19916;-65
2024/01/24 08:26:15;;;;;;;;;;;10.10;99.90;;;;;;5071832;28;19923;-66
2024/01/24 08:28:42;;;;;;;;;;;10.10;99.90;;;;;;5072624;28;20011;-66
2024/01/24 08:31:09;;;;;;;;;;;10.00;99.90;;;;;;5073238;28;20342;-67
2024/01/24 08:33:34;;;;;;;;;;;10.00;99.90;;;;;;5072617;28;19916;-66
2024/01/24 08:36:00;;;;;;;;;;;10.00;99.90;;;;;;5073031;28;19916;-66
2024/01/24 08:38:26;;;;;;;;;;;10.00;99.90;;;;;;5073052;28;19966;-66
2024/01/24 08:40:51;;;;;;;;;;;9.90;99.90;;;;;;5071640;28;19916;-66
2024/01/24 08:43:17;;;;;;;;;;;9.90;99.90;;;;;;5071438;28;19917;-66
2024/01/24 08:45:42;;;;;;;;;;;10.00;99.90;;;;;;5071290;28;20361;-66
2024/01/24 08:48:08;;;;;;;;;;;10.00;99.90;;;;;;5054425;28;19925;-66
2024/01/24 08:50:34;;;;;;;;;;;10.00;99.90;;;;;;5072430;28;19931;-66
2024/01/24 08:53:00;;;;;;;;;;;10.00;99.90;;;;;;5072307;28;19920;-66
2024/01/24 08:55:26;;;;;;;;;;;9.90;99.90;;;;;;5071856;28;19916;-66
2024/01/24 08:57:51;;;;;;;;;;;9.90;99.90;;;;;;5072598;28;19963;-66
2024/01/24 09:00:17;;;;;;;;;;;10.00;99.90;;;;;;5071543;28;19916;-66
2024/01/24 09:02:43;;;;;;;;;;;10.00;99.90;;;;;;5070955;28;20449;-66
2024/01/24 09:05:08;;;;;;;;;;;10.00;99.90;;;;;;5071570;28;19920;-66
2024/01/24 09:07:34;;;;;;;;;;;10.00;99.90;;;;;;5071341;28;19916;-66
2024/01/24 09:10:00;;;;;;;;;;;10.00;99.90;;;;;;5070673;28;20282;-66
2024/01/24 09:12:26;;;;;;;;;;;10.00;99.90;;;;;;5071166;28;19916;-66
2024/01/24 09:14:52;;;;;;;;;;;10.00;99.90;;;;;;5071309;28;19916;-66
2024/01/24 09:17:17;;;;;;;;;;;10.10;99.90;;;;;;5069322;28;19928;-66
2024/01/24 09:19:44;;;;;;;;;;;10.10;99.90;;;;;;5068873;28;20396;-66
2024/01/24 09:22:10;;;;;;;;;;;10.10;99.90;;;;;;5071847;28;20014;-66
2024/01/24 09:24:36;;;;;;;;;;;10.10;99.90;;;;;;5070792;28;19990;-67
2024/01/24 09:27:02;;;;;;;;;;;10.10;99.90;;;;;;5070376;28;20003;-66
2024/01/24 09:29:28;;;;;;;;;;;10.00;99.90;;;;;;5071661;28;19951;-66
2024/01/24 09:31:54;;;;;;;;;;;10.20;99.90;;;;;;5070395;28;20408;-66
2024/01/24 09:34:19;;;;;;;;;;;10.20;99.90;;;;;;5069705;28;19917;-66
2024/01/24 09:36:45;;;;;;;;;;;10.30;99.90;;;;;;5053786;28;19979;-66
2024/01/24 09:39:11;;;;;;;;;;;10.20;99.90;;;;;;5071515;28;19923;-66
2024/01/24 09:41:41;;;;;;;;;;;10.30;99.90;;;;;;5068495;28;19928;-66
2024/01/24 09:44:09;;;;;;;;;;;10.40;99.90;;;;;;5070875;28;19920;-66
2024/01/24 09:46:36;;;;;;;;;;;10.50;99.90;;;;;;5071175;28;20240;-66
2024/01/24 09:49:03;;;;;;;;;;;10.40;99.90;;;;;;5061740;28;19920;-66
2024/01/24 09:51:30;;;;;;;;;;;10.50;99.90;;;;;;5066912;28;20450;-66
2024/01/24 09:53:56;;;;;;;;;;;10.50;99.90;;;;;;5070650;28;19917;-67
2024/01/24 09:56:22;;;;;;;;;;;10.50;99.90;;;;;;5070133;28;19916;-66
2024/01/24 09:58:48;;;;;;;;;;;10.50;99.90;;;;;;5069765;28;19951;-66
2024/01/24 10:01:14;;;;;;;;;;;10.60;99.90;;;;;;5071469;28;19948;-66
2024/01/24 10:03:40;;;;;;;;;;;10.70;99.90;;;;;;5070413;28;20045;-66
2024/01/24 10:06:08;;;;;;;;;;;10.80;99.90;;;;;;5071326;28;20237;-66
2024/01/24 10:08:34;;;;;;;;;;;10.80;99.90;;;;;;5071232;28;19958;-66
2024/01/24 10:10:59;;;;;;;;;;;10.80;99.90;;;;;;5069838;28;19932;-67
2024/01/24 10:13:26;;;;;;;;;;;10.80;99.90;;;;;;5068970;28;20487;-67
2024/01/24 10:15:53;;;;;;;;;;;10.80;99.90;;;;;;5068921;28;19927;-66
2024/01/24 10:18:19;;;;;;;;;;;10.80;99.90;;;;;;5070867;28;20459;-66
2024/01/24 10:20:48;;;;;;;;;;;10.90;99.90;;;;;;5071120;28;19924;-67
2024/01/24 10:23:14;;;;;;;;;;;11.10;99.90;;;;;;5071241;28;19916;-66
2024/01/24 10:25:41;;;;;;;;;;;10.90;99.90;;;;;;5068825;28;20224;-65
2024/01/24 10:28:13;;;;;;;;;;;10.80;99.90;;;;;;5069091;28;19916;-66
2024/01/24 10:30:40;;;;;;;;;;;10.90;99.90;;;;;;5069566;28;20381;-66
2024/01/24 10:33:09;;;;;;;;;;;10.80;99.90;;;;;;5069881;28;19916;-66
2024/01/24 10:35:35;;;;;;;;;;;10.70;99.90;;;;;;5069780;28;19916;-66
2024/01/24 10:38:01;;;;;;;;;;;10.80;99.90;;;;;;5070700;28;20424;-66
2024/01/24 10:40:28;;;;;;;;;;;10.80;99.90;;;;;;5070531;28;20266;-66
2024/01/24 10:42:59;;;;;;;;;;;10.70;99.90;;;;;;5035320;28;19939;-66
2024/01/24 10:45:26;;;;;;;;;;;10.70;99.90;;;;;;5070475;28;20377;-66
2024/01/24 10:47:52;;;;;;;;;;;10.70;99.90;;;;;;5070414;28;19916;-66
2024/01/24 10:50:18;;;;;;;;;;;10.70;99.90;;;;;;5069689;28;19936;-66
2024/01/24 10:52:44;;;;;;;;;;;10.70;99.90;;;;;;5067260;28;19973;-65
2024/01/24 10:55:12;;;;;;;;;;;10.60;99.90;;;;;;5068080;28;19921;-66
2024/01/24 10:57:39;;;;;;;;;;;10.60;99.90;;;;;;5048860;28;19921;-66
2024/01/24 11:00:05;;;;;;;;;;;10.60;99.90;;;;;;5065417;28;20261;-66
2024/01/24 11:02:34;;;;;;;;;;;10.50;99.90;;;;;;5067952;28;19916;-66
2024/01/24 11:05:03;;;;;;;;;;;10.50;99.90;;;;;;5069094;28;19970;-66
2024/01/24 11:07:31;;;;;;;;;;;10.60;99.90;;;;;;5069878;28;20289;-66
2024/01/24 11:10:16;;;;;;;;;;;10.60;99.90;;;;;;5069161;28;19943;-65
2024/01/24 11:12:42;;;;;;;;;;;10.70;99.90;;;;;;5068313;28;20002;-66
2024/01/24 11:15:11;;;;;;;;;;;10.60;99.90;;;;;;5067836;28;19966;-66
2024/01/24 11:17:37;;;;;;;;;;;10.60;99.90;;;;;;5067204;28;19920;-66
2024/01/24 11:20:06;;;;;;;;;;;10.70;99.90;;;;;;5060950;28;20368;-66
2024/01/24 11:22:32;;;;;;;;;;;10.80;99.90;;;;;;5095305;28;19966;-66
2024/01/24 11:24:59;;;;;;;;;;;10.80;99.90;;;;;;5072830;28;20341;-66
2024/01/24 11:27:35;;;;;;;;;;;10.90;99.90;;;;;;5071143;28;19917;-66
2024/01/24 11:30:03;;;;;;;;;;;10.90;99.90;;;;;;5069166;28;19920;-66
2024/01/24 11:32:44;;;;;;;;;;;10.80;99.90;;;;;;5068687;28;19921;-66
2024/01/24 11:35:26;;;;;;;;;;;10.80;99.90;;;;;;5068161;28;19991;-66
2024/01/24 11:37:55;;;;;;;;;;;10.90;99.90;;;;;;5067439;28;19916;-66
2024/01/24 11:40:21;;;;;;;;;;;10.90;99.90;;;;;;5057200;28;19917;-66
2024/01/24 11:42:54;;;;;;;;;;;10.90;99.90;;;;;;5064945;28;19939;-66
2024/01/24 11:45:23;;;;;;;;;;;10.80;99.90;;;;;;5066268;28;19920;-66
2024/01/24 11:47:49;;;;;;;;;;;10.80;99.90;;;;;;5068775;28;19927;-66
2024/01/24 11:50:15;;;;;;;;;;;10.70;99.90;;;;;;5048985;28;19920;-65
2024/01/24 11:52:41;;;;;;;;;;;10.60;99.90;;;;;;5069881;28;19921;-66
2024/01/24 11:55:07;;;;;;;;;;;10.60;99.90;;;;;;5066065;28;19963;-67
2024/01/24 11:57:32;;;;;;;;;;;10.50;99.90;;;;;;5069153;28;19931;-66
2024/01/24 11:59:58;;;;;;;;;;;10.50;99.90;;;;;;5071558;28;20374;-66
2024/01/24 12:02:24;;;;;;;;;;;10.50;99.90;;;;;;5066469;28;19995;-66
2024/01/24 12:04:53;;;;;;;;;;;10.50;99.90;;;;;;5055321;28;19931;-66
2024/01/24 12:07:18;;;;;;;;;;;10.50;99.90;;;;;;5098640;27;19920;-66
2024/01/24 12:09:44;;;;;;;;;;;10.50;99.90;;;;;;5055024;28;19921;-66
2024/01/24 12:12:10;;;;;;;;;;;10.50;99.90;;;;;;5071496;28;20285;-66
2024/01/24 12:14:36;;;;;;;;;;;10.50;99.90;;;;;;5072175;28;20002;-66
2024/01/24 12:17:05;;;;;;;;;;;10.40;99.90;;;;;;5071873;28;19920;-66
2024/01/24 12:19:30;;;;;;;;;;;10.50;99.90;;;;;;5073367;28;19916;-66
2024/01/24 12:21:57;;;;;;;;;;;10.40;99.90;;;;;;5069537;28;19923;-65
2024/01/24 12:24:23;;;;;;;;;;;10.40;99.90;;;;;;5073044;28;20374;-66
2024/01/24 12:26:48;;;;;;;;;;;10.40;99.90;;;;;;5070689;28;19932;-65
2024/01/24 12:29:14;;;;;;;;;;;10.40;99.90;;;;;;5071649;28;19956;-66
2024/01/24 12:31:45;;;;;;;;;;;10.40;99.90;;;;;;5073730;28;20162;-66
2024/01/24 12:34:11;;;;;;;;;;;10.40;99.90;;;;;;5074474;28;19916;-66
2024/01/24 12:36:36;;;;;;;;;;;10.40;99.90;;;;;;5075980;28;19923;-66
2024/01/24 12:39:05;;;;;;;;;;;10.40;99.90;;;;;;5077129;28;19932;-66
2024/01/24 12:41:31;;;;;;;;;;;10.30;99.90;;;;;;5076399;28;20289;-66
2024/01/24 12:43:57;;;;;;;;;;;10.30;99.90;;;;;;5070200;28;19920;-66
2024/01/24 12:46:23;;;;;;;;;;;10.30;99.90;;;;;;5070361;28;20487;-66
2024/01/24 12:48:48;;;;;;;;;;;10.40;99.90;;;;;;5070808;28;19978;-66
2024/01/24 12:51:14;;;;;;;;;;;10.40;99.90;;;;;;5069901;28;19956;-66
2024/01/24 12:53:39;;;;;;;;;;;10.40;99.90;;;;;;5066024;28;20175;-66
2024/01/24 12:56:05;;;;;;;;;;;10.30;99.90;;;;;;5069740;28;20239;-66
2024/01/24 12:58:31;;;;;;;;;;;10.40;99.90;;;;;;5068326;28;20305;-66
2024/01/24 13:00:56;;;;;;;;;;;10.40;99.90;;;;;;5059574;28;19920;-65
2024/01/24 13:03:22;;;;;;;;;;;10.40;99.90;;;;;;5071254;28;20429;-66
2024/01/24 13:05:48;;;;;;;;;;;10.30;99.90;;;;;;5071061;28;19923;-66
2024/01/24 13:08:14;;;;;;;;;;;10.30;99.90;;;;;;5069308;28;19970;-66
2024/01/24 13:10:42;;;;;;;;;;;10.30;99.90;;;;;;5066913;28;19959;-66
2024/01/24 13:13:10;;;;;;;;;;;10.30;99.90;;;;;;5073595;28;19920;-65
2024/01/24 13:15:38;;;;;;;;;;;10.30;99.90;;;;;;5072168;28;19924;-65
2024/01/24 13:18:04;;;;;;;;;;;10.30;99.90;;;;;;5072041;28;19924;-65
2024/01/24 13:20:30;;;;;;;;;;;10.20;99.90;;;;;;5063981;28;19924;-66
2024/01/24 13:22:55;;;;;;;;;;;10.10;99.90;;;;;;5070716;28;20357;-66
2024/01/24 13:25:21;;;;;;;;;;;10.10;99.90;;;;;;5069458;28;19924;-66
2024/01/24 13:27:47;;;;;;;;;;;10.10;99.90;;;;;;5069066;28;19916;-66
2024/01/24 13:30:13;;;;;;;;;;;10.10;99.90;;;;;;5069809;28;20370;-66
2024/01/24 13:32:39;;;;;;;;;;;10.10;99.90;;;;;;5051873;28;19920;-66
2024/01/24 13:35:05;;;;;;;;;;;10.10;99.90;;;;;;5070397;28;19916;-66
2024/01/24 13:37:31;;;;;;;;;;;10.00;99.90;;;;;;5070392;28;19916;-66
2024/01/24 13:39:57;;;;;;;;;;;10.00;99.90;;;;;;5070464;28;19916;-65
2024/01/24 13:42:23;;;;;;;;;;;10.00;99.90;;;;;;5071846;28;19947;-66
2024/01/24 13:44:48;;;;;;;;;;;10.00;99.90;;;;;;5069740;28;20281;-66